Ransom, Illinois
Current Conditions -  °F | °C
As of 5:35 PM on Wednesday 22 Oct 2014 (Local Time) from KPNT Reporting Station
Clear Clear  
Wind Chill: 13°   Ceiling: Unl
Heat Index: 13°   Visibility: 10mi
Dew Point:   Wind: 6mph
Humidity: 44%   Direction: 120°ESE
Pressure: 30.26"   Gusts: NA
Location:  41.16°N, 88.65°W
Report Text: KPNT 222235Z AUTO 12005KT 10SM CLR 13/01 A3026 RMK AO2 T01310010
Loading
Personal Weather Stations






























Interactive Weather Map
Tropical Storm Tracking
New forecast layout! Learn more

10-Day Weather Forecast

Advertisements
Track Severe Weather on mobile